createdAt,value
2023-03-03T00:01:43.551Z,99.90
2023-03-03T00:04:11.020Z,99.90
2023-03-03T00:06:38.408Z,99.90
2023-03-03T00:09:06.133Z,99.90
2023-03-03T00:11:33.573Z,99.90
2023-03-03T00:14:00.996Z,99.90
2023-03-03T00:16:40.935Z,99.90
2023-03-03T00:19:17.850Z,99.90
2023-03-03T00:21:46.820Z,99.90
2023-03-03T00:24:14.275Z,99.90
2023-03-03T00:26:45.449Z,99.90
2023-03-03T00:29:25.112Z,99.90
2023-03-03T00:31:52.669Z,99.90
2023-03-03T00:34:27.820Z,99.90
2023-03-03T00:36:57.440Z,99.90
2023-03-03T00:39:29.377Z,99.90
2023-03-03T00:42:00.870Z,99.90
2023-03-03T00:44:42.975Z,99.90
2023-03-03T00:47:31.837Z,99.90
2023-03-03T00:50:27.750Z,99.90
2023-03-03T00:53:01.579Z,99.90
2023-03-03T00:55:30.045Z,99.90
2023-03-03T00:57:57.529Z,99.90
2023-03-03T01:00:25.209Z,99.90
2023-03-03T01:02:53.338Z,99.90
2023-03-03T01:05:21.920Z,99.90
2023-03-03T01:07:49.650Z,99.90
2023-03-03T01:10:17.157Z,99.90
2023-03-03T01:12:44.771Z,99.90
2023-03-03T01:15:14.476Z,99.90
2023-03-03T01:17:42.873Z,99.90
2023-03-03T01:20:12.944Z,99.90
2023-03-03T01:22:41.013Z,99.90
2023-03-03T01:25:09.249Z,99.90
2023-03-03T01:27:36.909Z,99.90
2023-03-03T01:30:06.663Z,99.90
2023-03-03T01:32:34.693Z,99.90
2023-03-03T01:35:02.412Z,99.90
2023-03-03T01:37:29.995Z,99.90
2023-03-03T01:39:57.627Z,99.90
2023-03-03T01:42:29.238Z,99.90
2023-03-03T01:45:22.398Z,99.90
2023-03-03T01:48:09.475Z,99.90
2023-03-03T01:50:59.876Z,99.90
2023-03-03T01:53:35.467Z,99.90
2023-03-03T01:56:07.732Z,99.90
2023-03-03T01:58:41.793Z,99.90
2023-03-03T02:01:14.773Z,99.90
2023-03-03T02:03:44.019Z,99.90
2023-03-03T02:06:18.778Z,99.90
2023-03-03T02:08:50.899Z,99.90
2023-03-03T02:11:19.528Z,99.90
2023-03-03T02:13:47.061Z,99.90
2023-03-03T02:16:15.107Z,99.90
2023-03-03T02:18:42.826Z,99.90
2023-03-03T02:21:15.582Z,99.90
2023-03-03T02:23:54.816Z,99.90
2023-03-03T02:26:27.607Z,99.90
2023-03-03T02:28:55.235Z,99.90
2023-03-03T02:31:25.498Z,99.90
2023-03-03T02:33:54.381Z,99.90
2023-03-03T02:36:32.873Z,99.90
2023-03-03T02:39:18.435Z,99.90
2023-03-03T02:41:54.431Z,99.90
2023-03-03T02:44:25.356Z,99.90
2023-03-03T02:46:54.797Z,99.90
2023-03-03T02:49:27.547Z,99.90
2023-03-03T02:51:55.962Z,99.90
2023-03-03T02:54:25.950Z,99.90
2023-03-03T02:56:53.813Z,99.90
2023-03-03T02:59:21.400Z,99.90
2023-03-03T03:01:49.408Z,99.90
2023-03-03T03:04:19.492Z,99.90
2023-03-03T03:06:47.420Z,99.90
2023-03-03T03:09:16.546Z,99.90
2023-03-03T03:11:44.656Z,99.90
2023-03-03T03:14:14.157Z,99.90
2023-03-03T03:16:41.860Z,99.90
2023-03-03T03:19:09.577Z,99.90
2023-03-03T03:21:37.345Z,99.90
2023-03-03T03:24:05.032Z,99.90
2023-03-03T03:26:32.469Z,99.90
2023-03-03T03:29:00.295Z,99.90
2023-03-03T03:31:28.068Z,99.90
2023-03-03T03:33:55.467Z,99.90
2023-03-03T03:36:22.918Z,99.90
2023-03-03T03:38:50.430Z,99.90
2023-03-03T03:41:17.901Z,99.90
2023-03-03T03:43:45.561Z,99.90
2023-03-03T03:46:13.318Z,99.90
2023-03-03T03:48:40.779Z,99.90
2023-03-03T03:51:08.293Z,99.90
2023-03-03T03:53:35.825Z,99.90
2023-03-03T03:56:03.473Z,99.90
2023-03-03T03:58:31.110Z,99.90
2023-03-03T04:01:06.758Z,99.90
2023-03-03T04:03:34.929Z,99.90
2023-03-03T04:06:02.379Z,99.90
2023-03-03T04:08:29.847Z,99.90
2023-03-03T04:10:57.531Z,99.90
2023-03-03T04:13:25.178Z,99.90
2023-03-03T04:15:52.597Z,99.90
2023-03-03T04:18:20.255Z,99.90
2023-03-03T04:20:47.874Z,99.90
2023-03-03T04:23:15.422Z,99.90
2023-03-03T04:25:43.065Z,99.90
2023-03-03T04:28:10.794Z,99.90
2023-03-03T04:30:38.290Z,99.90
2023-03-03T04:33:05.916Z,99.90
2023-03-03T04:35:33.581Z,99.90
2023-03-03T04:38:01.233Z,99.90
2023-03-03T04:40:28.860Z,99.90
2023-03-03T04:42:56.269Z,99.90
2023-03-03T04:45:23.658Z,99.90
2023-03-03T04:47:51.351Z,99.90
2023-03-03T04:50:18.893Z,99.90
2023-03-03T04:52:46.321Z,99.90
2023-03-03T04:55:14.433Z,99.90
2023-03-03T04:57:41.830Z,99.90
2023-03-03T05:00:13.274Z,99.90
2023-03-03T05:02:41.632Z,99.90
2023-03-03T05:05:10.807Z,99.90
2023-03-03T05:07:38.420Z,99.90
2023-03-03T05:10:07.569Z,99.90
2023-03-03T05:12:35.111Z,99.90
2023-03-03T05:15:02.893Z,99.90
2023-03-03T05:17:30.631Z,99.90
2023-03-03T05:19:58.137Z,99.90
2023-03-03T05:22:25.577Z,99.90
2023-03-03T05:24:53.988Z,99.90
2023-03-03T05:27:21.533Z,99.90
2023-03-03T05:29:49.066Z,99.90
2023-03-03T05:32:16.931Z,99.90
2023-03-03T05:34:44.459Z,99.90
2023-03-03T05:37:12.030Z,99.90
2023-03-03T05:39:39.684Z,99.90
2023-03-03T05:42:07.166Z,99.90
2023-03-03T05:44:34.568Z,99.90
2023-03-03T05:47:02.061Z,99.90
2023-03-03T05:49:29.549Z,99.90
2023-03-03T05:51:56.980Z,99.90
2023-03-03T05:54:24.662Z,99.90
2023-03-03T05:56:52.192Z,99.90
2023-03-03T05:59:19.869Z,99.90
2023-03-03T06:01:48.053Z,99.90
2023-03-03T06:04:15.669Z,99.90
2023-03-03T06:06:43.123Z,99.90
2023-03-03T06:09:10.830Z,99.90
2023-03-03T06:11:38.294Z,99.90
2023-03-03T06:14:05.842Z,99.90
2023-03-03T06:16:33.489Z,99.90
2023-03-03T06:19:01.513Z,99.90
2023-03-03T06:21:28.952Z,99.90
2023-03-03T06:23:56.609Z,99.90
2023-03-03T06:26:24.174Z,99.90
2023-03-03T06:28:54.228Z,99.90
2023-03-03T06:31:21.973Z,99.90
2023-03-03T06:33:49.554Z,99.90
2023-03-03T06:36:17.577Z,99.90
2023-03-03T06:38:45.443Z,99.90
2023-03-03T06:41:13.117Z,99.90
2023-03-03T06:43:40.689Z,99.90
2023-03-03T06:46:08.229Z,99.90
2023-03-03T06:48:35.746Z,99.90
2023-03-03T06:51:09.799Z,99.90
2023-03-03T06:53:37.529Z,99.90
2023-03-03T06:56:09.883Z,99.90
2023-03-03T06:58:37.490Z,99.90
2023-03-03T07:01:16.827Z,99.90
2023-03-03T07:03:44.911Z,99.90
2023-03-03T07:06:28.387Z,99.90
2023-03-03T07:08:57.754Z,99.90
2023-03-03T07:11:25.337Z,99.90
2023-03-03T07:13:56.110Z,99.90
2023-03-03T07:16:28.196Z,99.90
2023-03-03T07:19:01.692Z,99.90
2023-03-03T07:21:38.033Z,99.90
2023-03-03T07:24:31.658Z,99.90
2023-03-03T07:27:23.120Z,99.90
2023-03-03T07:29:53.242Z,99.90
2023-03-03T07:32:49.315Z,99.90
2023-03-03T07:35:39.416Z,99.90
2023-03-03T07:38:40.399Z,99.90
2023-03-03T07:41:17.401Z,99.90
2023-03-03T07:43:51.260Z,99.90
2023-03-03T07:46:35.017Z,99.90
2023-03-03T07:49:20.722Z,99.90
2023-03-03T07:51:52.668Z,99.90
2023-03-03T07:54:40.624Z,99.90
2023-03-03T07:57:43.322Z,99.90
2023-03-03T08:00:19.346Z,99.90
2023-03-03T08:02:54.422Z,99.90
2023-03-03T08:05:36.591Z,99.90
2023-03-03T08:08:10.001Z,99.90
2023-03-03T08:10:47.956Z,99.90
2023-03-03T08:13:35.078Z,99.90
2023-03-03T08:16:11.066Z,99.90
2023-03-03T08:18:48.174Z,99.90
2023-03-03T08:21:20.968Z,99.90
2023-03-03T08:23:53.388Z,99.90
2023-03-03T08:26:23.164Z,99.90
2023-03-03T08:28:51.206Z,99.90
2023-03-03T08:31:31.114Z,99.90
2023-03-03T08:34:06.148Z,99.90
2023-03-03T08:36:34.818Z,99.90
2023-03-03T08:39:03.510Z,99.90
2023-03-03T08:41:31.126Z,99.90
2023-03-03T08:43:58.787Z,99.90
2023-03-03T08:46:26.881Z,99.90
2023-03-03T08:48:54.610Z,99.90
2023-03-03T08:51:22.182Z,99.90
2023-03-03T08:53:49.737Z,99.90
2023-03-03T08:56:17.242Z,99.90
2023-03-03T08:59:01.742Z,99.90
2023-03-03T09:01:33.174Z,99.90
2023-03-03T09:04:01.308Z,99.90
2023-03-03T09:06:28.887Z,99.90
2023-03-03T09:08:56.655Z,99.90
2023-03-03T09:11:29.001Z,99.90
2023-03-03T09:14:13.138Z,99.90
2023-03-03T09:16:54.100Z,99.90
2023-03-03T09:19:26.976Z,99.90
2023-03-03T09:21:56.769Z,99.90
2023-03-03T09:24:30.785Z,99.90
2023-03-03T09:26:59.365Z,99.90
2023-03-03T09:29:40.599Z,99.90
2023-03-03T09:32:39.549Z,99.90
2023-03-03T09:35:28.854Z,99.90
2023-03-03T09:37:56.330Z,99.90
2023-03-03T09:40:42.296Z,99.90
2023-03-03T09:43:12.128Z,99.90
2023-03-03T09:45:52.107Z,99.90
2023-03-03T09:48:42.457Z,99.90
2023-03-03T09:51:33.755Z,99.90
2023-03-03T09:54:21.116Z,99.90
2023-03-03T09:57:01.297Z,99.90
2023-03-03T09:59:40.632Z,99.90
2023-03-03T10:02:34.612Z,99.90
2023-03-03T10:05:32.135Z,99.90
2023-03-03T10:08:24.907Z,99.90
2023-03-03T10:11:11.107Z,99.90
2023-03-03T10:13:48.798Z,99.90
2023-03-03T10:16:45.632Z,99.90
2023-03-03T10:19:36.624Z,99.90
2023-03-03T10:22:20.501Z,99.90
2023-03-03T10:24:56.132Z,99.90
2023-03-03T10:27:53.657Z,99.90
2023-03-03T10:30:48.572Z,99.90
2023-03-03T10:33:28.803Z,99.90
2023-03-03T10:36:06.588Z,99.90
2023-03-03T10:38:58.735Z,99.90
2023-03-03T10:42:00.755Z,99.90
2023-03-03T10:45:05.059Z,99.90
2023-03-03T10:47:50.531Z,99.90
2023-03-03T10:50:22.496Z,99.90
2023-03-03T10:52:50.048Z,99.90
2023-03-03T10:55:42.770Z,99.90
2023-03-03T10:58:17.902Z,99.90
2023-03-03T11:01:07.086Z,99.90
2023-03-03T11:04:00.198Z,99.90
2023-03-03T11:06:42.947Z,99.90
2023-03-03T11:09:33.403Z,99.90
2023-03-03T11:12:22.339Z,99.90
2023-03-03T11:15:24.180Z,99.90
2023-03-03T11:18:13.808Z,99.90
2023-03-03T11:20:59.629Z,99.90
2023-03-03T11:23:36.237Z,99.90
2023-03-03T11:26:08.715Z,99.90
2023-03-03T11:28:55.120Z,99.90
2023-03-03T11:31:41.338Z,99.90
2023-03-03T11:34:27.325Z,99.90
2023-03-03T11:37:08.294Z,99.90
2023-03-03T11:39:37.184Z,99.90
2023-03-03T11:42:08.104Z,99.90
2023-03-03T11:44:55.865Z,99.90
2023-03-03T11:47:39.653Z,99.90
2023-03-03T11:50:31.754Z,99.90
2023-03-03T11:53:25.534Z,99.90
2023-03-03T11:56:02.465Z,99.90
2023-03-03T11:58:44.772Z,99.90
2023-03-03T12:01:42.001Z,99.90
2023-03-03T12:04:19.037Z,99.90
2023-03-03T12:07:18.134Z,99.90
2023-03-03T12:10:13.952Z,99.90
2023-03-03T12:12:43.584Z,99.90
2023-03-03T12:15:29.001Z,99.90
2023-03-03T12:18:15.783Z,99.90
2023-03-03T12:20:55.225Z,99.90
2023-03-03T12:23:49.625Z,99.90
2023-03-03T12:26:44.211Z,99.90
2023-03-03T12:29:33.032Z,99.90
2023-03-03T12:32:27.546Z,99.90
2023-03-03T12:34:59.810Z,99.90
2023-03-03T12:37:46.790Z,99.90
2023-03-03T12:40:27.260Z,99.90
2023-03-03T12:43:03.377Z,99.90
2023-03-03T12:45:53.635Z,99.90
2023-03-03T12:48:40.828Z,99.90
2023-03-03T12:51:44.827Z,99.90
2023-03-03T12:54:27.975Z,99.90
2023-03-03T12:57:11.200Z,99.90
2023-03-03T13:00:11.381Z,99.90
2023-03-03T13:02:46.785Z,99.90
2023-03-03T13:05:27.529Z,99.90
2023-03-03T13:08:12.110Z,99.90
2023-03-03T13:10:43.800Z,99.90
2023-03-03T13:13:30.873Z,99.90
2023-03-03T13:16:40.340Z,99.90
2023-03-03T13:19:10.987Z,99.90
2023-03-03T13:21:50.140Z,99.90
2023-03-03T13:25:02.172Z,99.90
2023-03-03T13:27:41.246Z,97.80
2023-03-03T13:30:27.955Z,95.00
2023-03-03T13:33:10.732Z,95.90
2023-03-03T13:35:49.211Z,92.50
2023-03-03T13:38:23.415Z,90.80
2023-03-03T13:40:53.793Z,87.30
2023-03-03T13:43:56.426Z,89.60
2023-03-03T13:46:34.092Z,92.10
2023-03-03T13:49:31.599Z,92.80
2023-03-03T13:52:10.120Z,96.00
2023-03-03T13:54:46.580Z,94.50
2023-03-03T13:57:33.805Z,93.60
2023-03-03T14:00:31.118Z,91.70
2023-03-03T14:03:23.370Z,91.20
2023-03-03T14:05:52.543Z,91.90
2023-03-03T14:08:20.086Z,91.30
2023-03-03T14:10:59.362Z,90.80
2023-03-03T14:13:43.341Z,90.60
2023-03-03T14:16:40.778Z,91.50
2023-03-03T14:19:34.988Z,90.70
2023-03-03T14:22:24.204Z,92.40
2023-03-03T14:25:06.560Z,91.20
2023-03-03T14:27:54.719Z,89.80
2023-03-03T14:30:35.265Z,91.40
2023-03-03T14:33:08.661Z,92.80
2023-03-03T14:35:49.944Z,92.00
2023-03-03T14:38:20.273Z,93.70
2023-03-03T14:40:49.478Z,92.90
2023-03-03T14:43:25.866Z,93.60
2023-03-03T14:45:56.647Z,93.00
2023-03-03T14:48:27.287Z,92.60
2023-03-03T14:51:23.407Z,92.90
2023-03-03T14:53:52.069Z,93.20
2023-03-03T14:56:29.035Z,92.30
2023-03-03T14:59:23.699Z,92.00
2023-03-03T15:02:17.585Z,93.40
2023-03-03T15:04:47.038Z,93.50
2023-03-03T15:07:32.440Z,94.80
2023-03-03T15:10:00.130Z,94.40
2023-03-03T15:12:37.839Z,95.20
2023-03-03T15:15:11.730Z,95.30
2023-03-03T15:17:49.860Z,94.80
2023-03-03T15:20:39.791Z,93.70
2023-03-03T15:23:36.407Z,95.20
2023-03-03T15:26:33.347Z,95.50
2023-03-03T15:29:36.981Z,95.30
2023-03-03T15:32:23.378Z,94.80
2023-03-03T15:35:25.365Z,96.90
2023-03-03T15:38:15.660Z,95.10
2023-03-03T15:41:33.809Z,96.50
2023-03-03T15:44:07.244Z,98.10
2023-03-03T15:46:37.739Z,99.70
2023-03-03T15:49:32.253Z,98.40
2023-03-03T15:52:22.608Z,97.80
2023-03-03T15:55:26.406Z,98.20
2023-03-03T15:57:59.980Z,97.50
2023-03-03T16:00:30.583Z,97.60
2023-03-03T16:03:03.969Z,98.00
2023-03-03T16:05:43.779Z,97.10
2023-03-03T16:08:38.219Z,96.60
2023-03-03T16:11:28.443Z,96.80
2023-03-03T16:14:02.474Z,96.70
2023-03-03T16:16:54.570Z,96.50
2023-03-03T16:19:39.752Z,97.00
2023-03-03T16:22:43.360Z,97.30
2023-03-03T16:25:23.427Z,97.90
2023-03-03T16:28:05.208Z,99.20
2023-03-03T16:30:49.767Z,99.90
2023-03-03T16:33:23.027Z,99.90
2023-03-03T16:36:18.762Z,99.90
2023-03-03T16:38:50.177Z,99.90
2023-03-03T16:41:40.001Z,99.90
2023-03-03T16:44:21.932Z,99.90
2023-03-03T16:46:50.724Z,99.90
2023-03-03T16:49:24.504Z,99.90
2023-03-03T16:52:03.384Z,99.90
2023-03-03T16:54:44.748Z,99.90
2023-03-03T16:57:41.973Z,99.90
2023-03-03T17:00:12.506Z,99.90
2023-03-03T17:02:58.746Z,99.90
2023-03-03T17:05:34.839Z,99.90
2023-03-03T17:08:02.383Z,99.90
2023-03-03T17:10:50.244Z,99.90
2023-03-03T17:13:49.972Z,99.90
2023-03-03T17:16:17.393Z,99.90
2023-03-03T17:18:59.621Z,99.90
2023-03-03T17:21:27.247Z,99.90
2023-03-03T17:24:16.549Z,99.90
2023-03-03T17:27:14.778Z,99.90
2023-03-03T17:30:02.519Z,99.90
2023-03-03T17:32:47.504Z,99.90
2023-03-03T17:35:54.818Z,99.90
2023-03-03T17:38:49.631Z,99.90
2023-03-03T17:41:47.772Z,99.90
2023-03-03T17:44:23.868Z,99.90
2023-03-03T17:47:00.594Z,99.90
2023-03-03T17:49:54.340Z,99.90
2023-03-03T17:52:49.168Z,99.90
2023-03-03T17:55:43.761Z,99.90
2023-03-03T17:58:23.132Z,99.90
2023-03-03T18:01:08.745Z,99.90
2023-03-03T18:03:45.097Z,99.90
2023-03-03T18:06:52.278Z,99.90
2023-03-03T18:09:47.799Z,99.90
2023-03-03T18:12:40.029Z,99.90
2023-03-03T18:15:19.590Z,99.90
2023-03-03T18:18:01.433Z,99.90
2023-03-03T18:20:54.772Z,99.90
2023-03-03T18:23:30.543Z,99.90
2023-03-03T18:26:00.433Z,99.90
2023-03-03T18:28:50.771Z,99.90
2023-03-03T18:31:29.920Z,99.90
2023-03-03T18:34:01.935Z,99.90
2023-03-03T18:36:29.439Z,99.90
2023-03-03T18:39:03.017Z,99.90
2023-03-03T18:41:32.040Z,99.90
2023-03-03T18:44:01.793Z,99.90
2023-03-03T18:46:29.413Z,99.90
2023-03-03T18:49:09.960Z,99.90
2023-03-03T18:51:40.192Z,99.90
2023-03-03T18:54:17.180Z,99.90
2023-03-03T18:57:12.691Z,99.90
2023-03-03T18:59:48.204Z,99.90
2023-03-03T19:02:18.646Z,99.90
2023-03-03T19:04:55.550Z,99.90
2023-03-03T19:07:43.570Z,99.90
2023-03-03T19:10:22.804Z,99.90
2023-03-03T19:12:53.315Z,99.90
2023-03-03T19:15:38.590Z,99.90
2023-03-03T19:18:25.784Z,99.90
2023-03-03T19:21:05.412Z,99.90
2023-03-03T19:23:53.573Z,99.90
2023-03-03T19:26:42.155Z,99.90
2023-03-03T19:29:41.700Z,99.90
2023-03-03T19:32:39.613Z,99.90
2023-03-03T19:35:28.514Z,99.90
2023-03-03T19:38:11.254Z,99.90
2023-03-03T19:41:13.479Z,99.90
2023-03-03T19:43:46.668Z,99.90
2023-03-03T19:46:23.540Z,99.90
2023-03-03T19:49:05.729Z,99.90
2023-03-03T19:51:47.914Z,99.90
2023-03-03T19:54:28.456Z,99.90
2023-03-03T19:56:58.521Z,99.90
2023-03-03T19:59:45.600Z,99.90
2023-03-03T20:02:50.535Z,99.90
2023-03-03T20:05:50.201Z,99.90
2023-03-03T20:08:31.932Z,99.90
2023-03-03T20:11:21.437Z,99.90
2023-03-03T20:14:07.871Z,99.90
2023-03-03T20:16:41.770Z,99.90
2023-03-03T20:19:44.873Z,99.90
2023-03-03T20:22:34.422Z,99.90
2023-03-03T20:25:17.133Z,99.90
2023-03-03T20:28:01.245Z,99.90
2023-03-03T20:30:32.029Z,99.90
2023-03-03T20:33:38.222Z,99.90
2023-03-03T20:36:44.618Z,99.90
2023-03-03T20:39:39.763Z,99.90
2023-03-03T20:42:25.315Z,99.90
2023-03-03T20:45:29.878Z,99.90
2023-03-03T20:48:30.678Z,99.90
2023-03-03T20:51:21.434Z,99.90
2023-03-03T20:53:57.325Z,99.90
2023-03-03T20:56:36.281Z,99.90
2023-03-03T20:59:24.338Z,99.90
2023-03-03T21:02:16.613Z,99.90
2023-03-03T21:04:44.266Z,99.90
2023-03-03T21:07:24.952Z,99.90
2023-03-03T21:10:15.394Z,99.90
2023-03-03T21:12:43.520Z,99.90
2023-03-03T21:15:30.606Z,99.90
2023-03-03T21:17:59.526Z,99.90
2023-03-03T21:20:26.962Z,99.90
2023-03-03T21:22:56.049Z,99.90
2023-03-03T21:25:41.881Z,99.90
2023-03-03T21:28:18.073Z,99.90
2023-03-03T21:31:07.048Z,99.90
2023-03-03T21:33:59.855Z,99.90
2023-03-03T21:36:36.337Z,99.90
2023-03-03T21:39:30.797Z,99.90
2023-03-03T21:42:12.860Z,99.90
2023-03-03T21:44:44.894Z,99.90
2023-03-03T21:47:31.048Z,99.90
2023-03-03T21:49:58.598Z,99.90
2023-03-03T21:52:26.250Z,99.90
2023-03-03T21:54:53.780Z,99.90
2023-03-03T21:57:21.774Z,99.90
2023-03-03T21:59:49.306Z,99.90
2023-03-03T22:02:16.868Z,99.90
2023-03-03T22:04:44.553Z,99.90
2023-03-03T22:07:12.296Z,99.90
2023-03-03T22:09:39.824Z,99.90
2023-03-03T22:12:07.968Z,99.90
2023-03-03T22:14:35.689Z,99.90
2023-03-03T22:17:03.208Z,99.90
2023-03-03T22:19:30.852Z,99.90
2023-03-03T22:21:58.313Z,99.90
2023-03-03T22:24:25.888Z,99.90
2023-03-03T22:26:53.496Z,99.90
2023-03-03T22:29:23.188Z,99.90
2023-03-03T22:31:51.559Z,99.90
2023-03-03T22:34:19.445Z,99.90
2023-03-03T22:36:47.003Z,99.90
2023-03-03T22:39:14.482Z,99.90
2023-03-03T22:41:41.985Z,99.90
2023-03-03T22:44:09.404Z,99.90
2023-03-03T22:46:36.889Z,99.90
2023-03-03T22:49:04.459Z,99.90
2023-03-03T22:51:31.877Z,99.90
2023-03-03T22:53:59.319Z,99.90
2023-03-03T22:56:26.855Z,99.90
2023-03-03T22:58:54.290Z,99.90
2023-03-03T23:01:21.917Z,99.90
2023-03-03T23:03:50.702Z,99.90
2023-03-03T23:06:18.283Z,99.90
2023-03-03T23:08:45.800Z,99.90
2023-03-03T23:11:13.421Z,99.90
2023-03-03T23:13:40.895Z,99.90
2023-03-03T23:16:08.568Z,99.90
2023-03-03T23:18:36.136Z,99.90
2023-03-03T23:21:03.760Z,99.90
2023-03-03T23:23:31.489Z,99.90
2023-03-03T23:25:59.070Z,99.90
2023-03-03T23:28:26.587Z,99.90
2023-03-03T23:30:54.100Z,99.90
2023-03-03T23:33:21.999Z,99.90
2023-03-03T23:35:50.024Z,99.90
2023-03-03T23:38:17.900Z,99.90
2023-03-03T23:40:48.357Z,99.90
2023-03-03T23:43:15.876Z,99.90
2023-03-03T23:45:43.476Z,99.90
2023-03-03T23:48:11.172Z,99.90
2023-03-03T23:50:39.364Z,99.90
2023-03-03T23:53:07.829Z,99.90
2023-03-03T23:55:36.423Z,99.90
2023-03-03T23:58:04.639Z,99.90
